sensor_id;sensor_type;location;lat;lon;timestamp;pressure;altitude;pressure_sealevel;temperature;humidity
28935;BME280;16044;52.726;-2.108;2024-01-27T00:00:52;102212.22;;;5.03;100.00
28935;BME280;16044;52.726;-2.108;2024-01-27T00:03:22;102205.88;;;4.89;100.00
28935;BME280;16044;52.726;-2.108;2024-01-27T00:05:53;102198.19;;;4.98;100.00
28935;BME280;16044;52.726;-2.108;2024-01-27T00:08:26;102202.91;;;4.94;100.00
28935;BME280;16044;52.726;-2.108;2024-01-27T00:10:56;102208.69;;;4.88;100.00
28935;BME280;16044;52.726;-2.108;2024-01-27T00:13:27;102212.97;;;4.91;100.00
28935;BME280;16044;52.726;-2.108;2024-01-27T00:15:58;102215.56;;;4.92;100.00
28935;BME280;16044;52.726;-2.108;2024-01-27T00:18:28;102213.16;;;4.87;100.00
28935;BME280;16044;52.726;-2.108;2024-01-27T00:20:59;102206.66;;;4.92;100.00
28935;BME280;16044;52.726;-2.108;2024-01-27T00:23:32;102198.78;;;4.88;100.00
28935;BME280;16044;52.726;-2.108;2024-01-27T00:26:02;102205.31;;;4.84;100.00
28935;BME280;16044;52.726;-2.108;2024-01-27T00:28:33;102197.25;;;4.84;100.00
28935;BME280;16044;52.726;-2.108;2024-01-27T00:31:04;102195.72;;;4.80;100.00
28935;BME280;16044;52.726;-2.108;2024-01-27T00:33:34;102206.25;;;4.83;100.00
28935;BME280;16044;52.726;-2.108;2024-01-27T00:36:05;102203.03;;;4.78;100.00
28935;BME280;16044;52.726;-2.108;2024-01-27T00:38:39;102202.22;;;4.76;100.00
28935;BME280;16044;52.726;-2.108;2024-01-27T00:41:09;102196.31;;;4.71;100.00
28935;BME280;16044;52.726;-2.108;2024-01-27T00:43:46;102197.84;;;4.75;100.00
28935;BME280;16044;52.726;-2.108;2024-01-27T00:46:16;102198.22;;;4.69;100.00
28935;BME280;16044;52.726;-2.108;2024-01-27T00:48:46;102202.63;;;4.70;100.00
28935;BME280;16044;52.726;-2.108;2024-01-27T00:51:17;102193.41;;;4.74;100.00
28935;BME280;16044;52.726;-2.108;2024-01-27T00:53:50;102191.59;;;4.75;100.00
28935;BME280;16044;52.726;-2.108;2024-01-27T00:56:20;102195.25;;;4.74;100.00
28935;BME280;16044;52.726;-2.108;2024-01-27T00:58:51;102184.22;;;4.64;100.00
28935;BME280;16044;52.726;-2.108;2024-01-27T01:01:21;102187.28;;;4.72;100.00
28935;BME280;16044;52.726;-2.108;2024-01-27T01:03:52;102187.28;;;4.72;100.00
28935;BME280;16044;52.726;-2.108;2024-01-27T01:06:23;102185.56;;;4.71;100.00
28935;BME280;16044;52.726;-2.108;2024-01-27T01:08:56;102189.09;;;4.72;100.00
28935;BME280;16044;52.726;-2.108;2024-01-27T01:11:26;102187.28;;;4.72;100.00
28935;BME280;16044;52.726;-2.108;2024-01-27T01:13:57;102184.97;;;4.66;100.00
28935;BME280;16044;52.726;-2.108;2024-01-27T01:16:27;102181.34;;;4.67;100.00
28935;BME280;16044;52.726;-2.108;2024-01-27T01:18:57;102181.72;;;4.61;100.00
28935;BME280;16044;52.726;-2.108;2024-01-27T01:21:28;102182.69;;;4.60;100.00
28935;BME280;16044;52.726;-2.108;2024-01-27T01:24:01;102178.09;;;4.62;100.00
28935;BME280;16044;52.726;-2.108;2024-01-27T01:26:31;102198.81;;;4.60;100.00
28935;BME280;16044;52.726;-2.108;2024-01-27T01:29:02;102188.72;;;4.63;100.00
28935;BME280;16044;52.726;-2.108;2024-01-27T01:31:32;102191.31;;;4.65;100.00
28935;BME280;16044;52.726;-2.108;2024-01-27T01:34:03;102193.22;;;4.63;100.00
28935;BME280;16044;52.726;-2.108;2024-01-27T01:36:33;102188.91;;;4.60;100.00
28935;BME280;16044;52.726;-2.108;2024-01-27T01:39:07;102185.47;;;4.58;100.00
28935;BME280;16044;52.726;-2.108;2024-01-27T01:41:40;102179.25;;;4.58;100.00
28935;BME280;16044;52.726;-2.108;2024-01-27T01:44:10;102183.53;;;4.60;100.00
28935;BME280;16044;52.726;-2.108;2024-01-27T01:46:41;102181.16;;;4.56;100.00
28935;BME280;16044;52.726;-2.108;2024-01-27T01:49:11;102171.66;;;4.64;100.00
28935;BME280;16044;52.726;-2.108;2024-01-27T01:51:42;102177.00;;;4.64;100.00
28935;BME280;16044;52.726;-2.108;2024-01-27T01:54:15;102176.16;;;4.64;100.00
28935;BME280;16044;52.726;-2.108;2024-01-27T01:56:46;102175.66;;;4.57;100.00
28935;BME280;16044;52.726;-2.108;2024-01-27T01:59:16;102180.94;;;4.59;100.00
28935;BME280;16044;52.726;-2.108;2024-01-27T02:01:47;102177.88;;;4.65;100.00
28935;BME280;16044;52.726;-2.108;2024-01-27T02:04:17;102190.34;;;4.66;100.00
28935;BME280;16044;52.726;-2.108;2024-01-27T02:06:47;102198.41;;;4.66;100.00
28935;BME280;16044;52.726;-2.108;2024-01-27T02:09:21;102196.59;;;4.66;100.00
28935;BME280;16044;52.726;-2.108;2024-01-27T02:11:51;102202.84;;;4.67;100.00
28935;BME280;16044;52.726;-2.108;2024-01-27T02:14:22;102189.41;;;4.67;100.00
28935;BME280;16044;52.726;-2.108;2024-01-27T02:16:54;102187.00;;;4.62;100.00
28935;BME280;16044;52.726;-2.108;2024-01-27T02:19:25;102196.66;;;4.65;100.00
28935;BME280;16044;52.726;-2.108;2024-01-27T02:21:55;102185.94;;;4.65;100.00
28935;BME280;16044;52.726;-2.108;2024-01-27T02:24:28;102183.38;;;4.63;100.00
28935;BME280;16044;52.726;-2.108;2024-01-27T02:26:59;102178.84;;;4.64;100.00
28935;BME280;16044;52.726;-2.108;2024-01-27T02:29:29;102193.97;;;4.65;100.00
28935;BME280;16044;52.726;-2.108;2024-01-27T02:31:59;102180.56;;;4.65;100.00
28935;BME280;16044;52.726;-2.108;2024-01-27T02:34:30;102184.22;;;4.64;100.00
28935;BME280;16044;52.726;-2.108;2024-01-27T02:37:00;102185.16;;;4.63;100.00
28935;BME280;16044;52.726;-2.108;2024-01-27T02:39:34;102183.44;;;4.62;100.00
28935;BME280;16044;52.726;-2.108;2024-01-27T02:42:06;102197.06;;;4.59;100.00
28935;BME280;16044;52.726;-2.108;2024-01-27T02:44:37;102180.09;;;4.58;100.00
28935;BME280;16044;52.726;-2.108;2024-01-27T02:47:07;102177.31;;;4.60;100.00
28935;BME280;16044;52.726;-2.108;2024-01-27T02:49:38;102177.50;;;4.57;100.00
28935;BME280;16044;52.726;-2.108;2024-01-27T02:52:08;102175.13;;;4.52;100.00
28935;BME280;16044;52.726;-2.108;2024-01-27T02:54:43;102161.19;;;4.45;100.00
28935;BME280;16044;52.726;-2.108;2024-01-27T02:57:14;102165.81;;;4.43;100.00
28935;BME280;16044;52.726;-2.108;2024-01-27T02:59:46;102158.13;;;4.37;100.00
28935;BME280;16044;52.726;-2.108;2024-01-27T03:02:17;102152.47;;;4.27;100.00
28935;BME280;16044;52.726;-2.108;2024-01-27T03:04:47;102154.28;;;4.27;100.00
28935;BME280;16044;52.726;-2.108;2024-01-27T03:07:18;102158.41;;;4.18;100.00
28935;BME280;16044;52.726;-2.108;2024-01-27T03:09:51;102162.50;;;4.09;100.00
28935;BME280;16044;52.726;-2.108;2024-01-27T03:12:21;102160.97;;;4.05;100.00
28935;BME280;16044;52.726;-2.108;2024-01-27T03:14:52;102171.31;;;3.97;100.00
28935;BME280;16044;52.726;-2.108;2024-01-27T03:17:23;102178.59;;;3.95;100.00
28935;BME280;16044;52.726;-2.108;2024-01-27T03:19:53;102181.81;;;3.86;100.00
28935;BME280;16044;52.726;-2.108;2024-01-27T03:22:23;102186.44;;;3.84;100.00
28935;BME280;16044;52.726;-2.108;2024-01-27T03:24:56;102176.25;;;3.75;100.00
28935;BME280;16044;52.726;-2.108;2024-01-27T03:27:27;102185.31;;;3.72;100.00
28935;BME280;16044;52.726;-2.108;2024-01-27T03:30:00;102177.38;;;3.70;100.00
28935;BME280;16044;52.726;-2.108;2024-01-27T03:32:31;102167.50;;;3.71;100.00
28935;BME280;16044;52.726;-2.108;2024-01-27T03:35:02;102178.31;;;3.69;100.00
28935;BME280;16044;52.726;-2.108;2024-01-27T03:37:33;102168.34;;;3.71;100.00
28935;BME280;16044;52.726;-2.108;2024-01-27T03:40:08;102174.50;;;3.74;100.00
28935;BME280;16044;52.726;-2.108;2024-01-27T03:42:39;102169.22;;;3.72;100.00
28935;BME280;16044;52.726;-2.108;2024-01-27T03:45:09;102169.72;;;3.79;100.00
28935;BME280;16044;52.726;-2.108;2024-01-27T03:47:40;102168.00;;;3.78;100.00
28935;BME280;16044;52.726;-2.108;2024-01-27T03:50:14;102160.03;;;3.76;100.00
28935;BME280;16044;52.726;-2.108;2024-01-27T03:52:44;102157.25;;;3.78;100.00
28935;BME280;16044;52.726;-2.108;2024-01-27T03:55:18;102159.00;;;3.79;100.00
28935;BME280;16044;52.726;-2.108;2024-01-27T03:57:48;102165.91;;;3.83;100.00
28935;BME280;16044;52.726;-2.108;2024-01-27T04:00:19;102162.28;;;3.84;100.00
28935;BME280;16044;52.726;-2.108;2024-01-27T04:02:50;102161.13;;;3.88;100.00
28935;BME280;16044;52.726;-2.108;2024-01-27T04:05:20;102162.59;;;3.94;100.00
28935;BME280;16044;52.726;-2.108;2024-01-27T04:07:50;102156.34;;;3.93;100.00
28935;BME280;16044;52.726;-2.108;2024-01-27T04:10:23;102152.34;;;4.00;100.00
28935;BME280;16044;52.726;-2.108;2024-01-27T04:12:54;102150.31;;;4.04;100.00
28935;BME280;16044;52.726;-2.108;2024-01-27T04:15:24;102137.75;;;4.04;100.00
28935;BME280;16044;52.726;-2.108;2024-01-27T04:17:55;102133.56;;;4.00;100.00
28935;BME280;16044;52.726;-2.108;2024-01-27T04:20:26;102123.41;;;4.05;100.00
28935;BME280;16044;52.726;-2.108;2024-01-27T04:22:56;102122.34;;;4.08;100.00
28935;BME280;16044;52.726;-2.108;2024-01-27T04:25:29;102116.97;;;4.08;100.00
28935;BME280;16044;52.726;-2.108;2024-01-27T04:28:00;102115.28;;;4.07;100.00
28935;BME280;16044;52.726;-2.108;2024-01-27T04:30:30;102123.03;;;4.12;100.00
28935;BME280;16044;52.726;-2.108;2024-01-27T04:33:01;102105.22;;;4.10;100.00
28935;BME280;16044;52.726;-2.108;2024-01-27T04:35:35;102115.56;;;4.17;100.00
28935;BME280;16044;52.726;-2.108;2024-01-27T04:38:05;102110.88;;;4.20;100.00
28935;BME280;16044;52.726;-2.108;2024-01-27T04:40:40;102119.38;;;4.27;100.00
28935;BME280;16044;52.726;-2.108;2024-01-27T04:43:14;102114.41;;;4.21;100.00
28935;BME280;16044;52.726;-2.108;2024-01-27T04:45:45;102100.59;;;4.27;100.00
28935;BME280;16044;52.726;-2.108;2024-01-27T04:48:15;102110.47;;;4.26;100.00
28935;BME280;16044;52.726;-2.108;2024-01-27T04:50:46;102117.38;;;4.30;100.00
28935;BME280;16044;52.726;-2.108;2024-01-27T04:53:17;102125.50;;;4.29;100.00
28935;BME280;16044;52.726;-2.108;2024-01-27T04:55:50;102119.19;;;4.30;100.00
28935;BME280;16044;52.726;-2.108;2024-01-27T04:58:21;102111.91;;;4.32;100.00
28935;BME280;16044;52.726;-2.108;2024-01-27T05:00:51;102120.66;;;4.36;100.00
28935;BME280;16044;52.726;-2.108;2024-01-27T05:03:21;102115.94;;;4.39;100.00
28935;BME280;16044;52.726;-2.108;2024-01-27T05:05:52;102115.75;;;4.42;100.00
28935;BME280;16044;52.726;-2.108;2024-01-27T05:08:23;102107.50;;;4.45;100.00
28935;BME280;16044;52.726;-2.108;2024-01-27T05:10:56;102105.47;;;4.49;100.00
28935;BME280;16044;52.726;-2.108;2024-01-27T05:13:26;102100.78;;;4.53;100.00
28935;BME280;16044;52.726;-2.108;2024-01-27T05:15:56;102099.34;;;4.47;100.00
28935;BME280;16044;52.726;-2.108;2024-01-27T05:18:27;102103.56;;;4.51;100.00
28935;BME280;16044;52.726;-2.108;2024-01-27T05:20:57;102094.56;;;4.52;100.00
28935;BME280;16044;52.726;-2.108;2024-01-27T05:23:28;102092.53;;;4.56;100.00
28935;BME280;16044;52.726;-2.108;2024-01-27T05:26:02;102111.22;;;4.57;100.00
28935;BME280;16044;52.726;-2.108;2024-01-27T05:28:35;102109.41;;;4.58;100.00
28935;BME280;16044;52.726;-2.108;2024-01-27T05:31:06;102109.00;;;4.64;100.00
28935;BME280;16044;52.726;-2.108;2024-01-27T05:33:37;102120.63;;;4.64;100.00
28935;BME280;16044;52.726;-2.108;2024-01-27T05:36:08;102126.75;;;4.66;100.00
28935;BME280;16044;52.726;-2.108;2024-01-27T05:38:39;102129.25;;;4.69;100.00
28935;BME280;16044;52.726;-2.108;2024-01-27T05:41:11;102132.78;;;4.70;100.00
28935;BME280;16044;52.726;-2.108;2024-01-27T05:43:42;102127.41;;;4.70;100.00
28935;BME280;16044;52.726;-2.108;2024-01-27T05:46:12;102137.22;;;4.71;100.00
28935;BME280;16044;52.726;-2.108;2024-01-27T05:48:42;102125.50;;;4.72;100.00
28935;BME280;16044;52.726;-2.108;2024-01-27T05:51:13;102123.69;;;4.73;100.00
28935;BME280;16044;52.726;-2.108;2024-01-27T05:53:44;102099.38;;;4.74;100.00
28935;BME280;16044;52.726;-2.108;2024-01-27T05:56:17;102107.44;;;4.74;100.00
28935;BME280;16044;52.726;-2.108;2024-01-27T05:58:48;102095.09;;;4.72;100.00
28935;BME280;16044;52.726;-2.108;2024-01-27T06:01:19;102110.34;;;4.71;100.00
28935;BME280;16044;52.726;-2.108;2024-01-27T06:03:49;102097.88;;;4.70;100.00
28935;BME280;16044;52.726;-2.108;2024-01-27T06:06:20;102082.06;;;4.65;100.00
28935;BME280;16044;52.726;-2.108;2024-01-27T06:08:51;102083.50;;;4.71;100.00
28935;BME280;16044;52.726;-2.108;2024-01-27T06:11:26;102086.56;;;4.65;100.00
28935;BME280;16044;52.726;-2.108;2024-01-27T06:13:57;102081.00;;;4.68;100.00
28935;BME280;16044;52.726;-2.108;2024-01-27T06:16:28;102070.06;;;4.71;100.00
28935;BME280;16044;52.726;-2.108;2024-01-27T06:18:58;102073.13;;;4.65;100.00
28935;BME280;16044;52.726;-2.108;2024-01-27T06:21:29;102073.03;;;4.66;100.00
28935;BME280;16044;52.726;-2.108;2024-01-27T06:23:59;102062.38;;;4.65;100.00
28935;BME280;16044;52.726;-2.108;2024-01-27T06:26:32;102067.00;;;4.63;100.00
28935;BME280;16044;52.726;-2.108;2024-01-27T06:29:02;102066.13;;;4.62;100.00
28935;BME280;16044;52.726;-2.108;2024-01-27T06:31:33;102071.59;;;4.61;100.00
28935;BME280;16044;52.726;-2.108;2024-01-27T06:34:03;102078.13;;;4.57;100.00
28935;BME280;16044;52.726;-2.108;2024-01-27T06:36:34;102079.97;;;4.56;100.00
28935;BME280;16044;52.726;-2.108;2024-01-27T06:39:04;102073.84;;;4.54;100.00
28935;BME280;16044;52.726;-2.108;2024-01-27T06:41:37;102079.31;;;4.53;100.00
28935;BME280;16044;52.726;-2.108;2024-01-27T06:44:08;102071.16;;;4.54;100.00
28935;BME280;16044;52.726;-2.108;2024-01-27T06:46:38;102076.31;;;4.57;100.00
28935;BME280;16044;52.726;-2.108;2024-01-27T06:49:08;102080.81;;;4.57;100.00
28935;BME280;16044;52.726;-2.108;2024-01-27T06:51:40;102071.81;;;4.58;100.00
28935;BME280;16044;52.726;-2.108;2024-01-27T06:54:10;102083.50;;;4.57;100.00
28935;BME280;16044;52.726;-2.108;2024-01-27T06:56:43;102078.03;;;4.58;100.00
28935;BME280;16044;52.726;-2.108;2024-01-27T06:59:13;102068.16;;;4.59;100.00
28935;BME280;16044;52.726;-2.108;2024-01-27T07:01:45;102076.31;;;4.57;100.00
28935;BME280;16044;52.726;-2.108;2024-01-27T07:04:17;102075.44;;;4.57;100.00
28935;BME280;16044;52.726;-2.108;2024-01-27T07:06:47;102072.66;;;4.58;100.00
28935;BME280;16044;52.726;-2.108;2024-01-27T07:09:18;102062.78;;;4.59;100.00
28935;BME280;16044;52.726;-2.108;2024-01-27T07:11:51;102054.16;;;4.54;100.00
28935;BME280;16044;52.726;-2.108;2024-01-27T07:14:22;102061.84;;;4.60;100.00
28935;BME280;16044;52.726;-2.108;2024-01-27T07:16:52;102074.28;;;4.61;100.00
28935;BME280;16044;52.726;-2.108;2024-01-27T07:19:23;102073.53;;;4.59;100.00
28935;BME280;16044;52.726;-2.108;2024-01-27T07:21:53;102069.69;;;4.63;100.00
28935;BME280;16044;52.726;-2.108;2024-01-27T07:24:23;102077.84;;;4.61;100.00
28935;BME280;16044;52.726;-2.108;2024-01-27T07:26:57;102082.34;;;4.61;100.00
28935;BME280;16044;52.726;-2.108;2024-01-27T07:29:30;102081.50;;;4.60;100.00
28935;BME280;16044;52.726;-2.108;2024-01-27T07:32:00;102076.22;;;4.59;100.00
28935;BME280;16044;52.726;-2.108;2024-01-27T07:34:30;102089.06;;;4.54;100.00
28935;BME280;16044;52.726;-2.108;2024-01-27T07:37:01;102072.00;;;4.55;100.00
28935;BME280;16044;52.726;-2.108;2024-01-27T07:39:31;102071.25;;;4.53;100.00
28935;BME280;16044;52.726;-2.108;2024-01-27T07:42:05;102071.56;;;4.48;100.00
28935;BME280;16044;52.726;-2.108;2024-01-27T07:44:37;102081.63;;;4.44;100.00
28935;BME280;16044;52.726;-2.108;2024-01-27T07:47:07;102098.50;;;4.46;100.00
28935;BME280;16044;52.726;-2.108;2024-01-27T07:49:38;102091.38;;;4.45;100.00
28935;BME280;16044;52.726;-2.108;2024-01-27T07:52:08;102087.84;;;4.45;100.00
28935;BME280;16044;52.726;-2.108;2024-01-27T07:54:39;102084.41;;;4.43;100.00
28935;BME280;16044;52.726;-2.108;2024-01-27T07:57:12;102095.81;;;4.46;100.00
28935;BME280;16044;52.726;-2.108;2024-01-27T07:59:43;102089.56;;;4.46;100.00
28935;BME280;16044;52.726;-2.108;2024-01-27T08:02:13;102097.53;;;4.47;100.00
28935;BME280;16044;52.726;-2.108;2024-01-27T08:04:43;102101.19;;;4.46;100.00
28935;BME280;16044;52.726;-2.108;2024-01-27T08:07:14;102097.53;;;4.47;100.00
28935;BME280;16044;52.726;-2.108;2024-01-27T08:09:44;102092.81;;;4.51;100.00
28935;BME280;16044;52.726;-2.108;2024-01-27T08:12:17;102102.63;;;4.52;100.00
28935;BME280;16044;52.726;-2.108;2024-01-27T08:14:47;102100.97;;;4.49;100.00
28935;BME280;16044;52.726;-2.108;2024-01-27T08:17:18;102107.84;;;4.54;100.00
28935;BME280;16044;52.726;-2.108;2024-01-27T08:19:48;102093.50;;;4.55;100.00
28935;BME280;16044;52.726;-2.108;2024-01-27T08:22:19;102085.34;;;4.56;100.00
28935;BME280;16044;52.726;-2.108;2024-01-27T08:24:49;102098.69;;;4.58;100.00
28935;BME280;16044;52.726;-2.108;2024-01-27T08:27:22;102097.59;;;4.60;100.00
28935;BME280;16044;52.726;-2.108;2024-01-27T08:29:53;102090.41;;;4.61;100.00
28935;BME280;16044;52.726;-2.108;2024-01-27T08:32:24;102091.38;;;4.60;100.00
28935;BME280;16044;52.726;-2.108;2024-01-27T08:34:55;102094.72;;;4.63;100.00
28935;BME280;16044;52.726;-2.108;2024-01-27T08:37:25;102100.19;;;4.62;100.00
28935;BME280;16044;52.726;-2.108;2024-01-27T08:39:56;102104.03;;;4.58;100.00
28935;BME280;16044;52.726;-2.108;2024-01-27T08:42:29;102103.81;;;4.61;100.00
28935;BME280;16044;52.726;-2.108;2024-01-27T08:45:00;102108.25;;;4.62;100.00
28935;BME280;16044;52.726;-2.108;2024-01-27T08:47:30;102121.47;;;4.65;100.00
28935;BME280;16044;52.726;-2.108;2024-01-27T08:50:01;102127.41;;;4.70;100.00
28935;BME280;16044;52.726;-2.108;2024-01-27T08:52:31;102123.03;;;4.69;100.00
28935;BME280;16044;52.726;-2.108;2024-01-27T08:55:05;102117.44;;;4.72;100.00
28935;BME280;16044;52.726;-2.108;2024-01-27T08:57:39;102129.16;;;4.71;100.00
28935;BME280;16044;52.726;-2.108;2024-01-27T09:00:11;102124.53;;;4.73;100.00
28935;BME280;16044;52.726;-2.108;2024-01-27T09:02:43;102119.94;;;4.75;100.00
28935;BME280;16044;52.726;-2.108;2024-01-27T09:05:14;102109.09;;;4.77;100.00
28935;BME280;16044;52.726;-2.108;2024-01-27T09:07:45;102100.81;;;4.80;100.00
28935;BME280;16044;52.726;-2.108;2024-01-27T09:10:16;102112.44;;;4.80;100.00
28935;BME280;16044;52.726;-2.108;2024-01-27T09:12:49;102107.94;;;4.81;100.00
28935;BME280;16044;52.726;-2.108;2024-01-27T09:15:19;102108.50;;;4.86;100.00
28935;BME280;16044;52.726;-2.108;2024-01-27T09:17:50;102114.91;;;4.83;100.00
28935;BME280;16044;52.726;-2.108;2024-01-27T09:20:21;102110.88;;;4.91;100.00
28935;BME280;16044;52.726;-2.108;2024-01-27T09:22:52;102109.72;;;4.95;100.00
28935;BME280;16044;52.726;-2.108;2024-01-27T09:25:22;102103.06;;;5.00;100.00
28935;BME280;16044;52.726;-2.108;2024-01-27T09:27:57;102113.53;;;5.05;100.00
28935;BME280;16044;52.726;-2.108;2024-01-27T09:30:29;102102.78;;;5.05;100.00
28935;BME280;16044;52.726;-2.108;2024-01-27T09:33:04;102108.31;;;5.16;100.00
28935;BME280;16044;52.726;-2.108;2024-01-27T09:35:35;102102.63;;;5.21;100.00
28935;BME280;16044;52.726;-2.108;2024-01-27T09:38:06;102116.06;;;5.21;100.00
28935;BME280;16044;52.726;-2.108;2024-01-27T09:40:40;102107.38;;;5.30;100.00
28935;BME280;16044;52.726;-2.108;2024-01-27T09:43:13;102113.84;;;5.27;100.00
28935;BME280;16044;52.726;-2.108;2024-01-27T09:45:43;102108.03;;;5.34;100.00
28935;BME280;16044;52.726;-2.108;2024-01-27T09:48:14;102111.28;;;5.39;100.00
28935;BME280;16044;52.726;-2.108;2024-01-27T09:50:45;102100.53;;;5.39;100.00
28935;BME280;16044;52.726;-2.108;2024-01-27T09:53:17;102100.31;;;5.42;100.00
28935;BME280;16044;52.726;-2.108;2024-01-27T09:55:48;102102.06;;;5.43;100.00
28935;BME280;16044;52.726;-2.108;2024-01-27T09:58:21;102109.69;;;5.49;100.00
28935;BME280;16044;52.726;-2.108;2024-01-27T10:00:54;102107.56;;;5.54;100.00
28935;BME280;16044;52.726;-2.108;2024-01-27T10:03:26;102111.97;;;5.55;100.00
28935;BME280;16044;52.726;-2.108;2024-01-27T10:05:57;102112.84;;;5.56;100.00
28935;BME280;16044;52.726;-2.108;2024-01-27T10:08:29;102109.16;;;5.57;100.00
28935;BME280;16044;52.726;-2.108;2024-01-27T10:10:59;102122.53;;;5.58;100.00
28935;BME280;16044;52.726;-2.108;2024-01-27T10:13:39;102104.78;;;5.56;100.00
28935;BME280;16044;52.726;-2.108;2024-01-27T10:16:09;102113.47;;;5.59;100.00
28935;BME280;16044;52.726;-2.108;2024-01-27T10:18:40;102114.13;;;5.63;100.00
28935;BME280;16044;52.726;-2.108;2024-01-27T10:21:13;102111.91;;;5.70;100.00
28935;BME280;16044;52.726;-2.108;2024-01-27T10:23:44;102111.78;;;5.71;100.00
28935;BME280;16044;52.726;-2.108;2024-01-27T10:26:14;102112.66;;;5.72;100.00
28935;BME280;16044;52.726;-2.108;2024-01-27T10:28:54;102118.59;;;5.77;100.00
28935;BME280;16044;52.726;-2.108;2024-01-27T10:31:29;102115.56;;;5.81;100.00
28935;BME280;16044;52.726;-2.108;2024-01-27T10:34:00;102117.41;;;5.81;100.00
28935;BME280;16044;52.726;-2.108;2024-01-27T10:36:42;102116.31;;;5.83;100.00
28935;BME280;16044;52.726;-2.108;2024-01-27T10:39:17;102114.19;;;5.89;100.00
28935;BME280;16044;52.726;-2.108;2024-01-27T10:41:49;102109.66;;;5.89;100.00
28935;BME280;16044;52.726;-2.108;2024-01-27T10:44:23;102110.13;;;5.96;100.00
28935;BME280;16044;52.726;-2.108;2024-01-27T10:46:56;102102.38;;;6.04;100.00
28935;BME280;16044;52.726;-2.108;2024-01-27T10:49:32;102100.88;;;6.13;100.00
28935;BME280;16044;52.726;-2.108;2024-01-27T10:52:10;102094.84;;;6.22;100.00
28935;BME280;16044;52.726;-2.108;2024-01-27T10:54:42;102097.09;;;6.28;100.00
28935;BME280;16044;52.726;-2.108;2024-01-27T10:57:14;102102.03;;;6.34;100.00
28935;BME280;16044;52.726;-2.108;2024-01-27T10:59:48;102100.63;;;6.41;100.00
28935;BME280;16044;52.726;-2.108;2024-01-27T11:02:19;102100.81;;;6.51;100.00
28935;BME280;16044;52.726;-2.108;2024-01-27T11:04:51;102109.44;;;6.56;100.00
28935;BME280;16044;52.726;-2.108;2024-01-27T11:07:23;102110.09;;;6.60;100.00
28935;BME280;16044;52.726;-2.108;2024-01-27T11:09:53;102112.31;;;6.66;100.00
28935;BME280;16044;52.726;-2.108;2024-01-27T11:12:24;102119.97;;;6.72;100.00
28935;BME280;16044;52.726;-2.108;2024-01-27T11:14:58;102098.59;;;6.82;100.00
28935;BME280;16044;52.726;-2.108;2024-01-27T11:17:38;102098.91;;;6.90;100.00
28935;BME280;16044;52.726;-2.108;2024-01-27T11:20:10;102099.06;;;7.00;100.00
28935;BME280;16044;52.726;-2.108;2024-01-27T11:22:43;102107.56;;;7.07;100.00
28935;BME280;16044;52.726;-2.108;2024-01-27T11:25:15;102092.63;;;7.14;100.00
28935;BME280;16044;52.726;-2.108;2024-01-27T11:27:46;102087.88;;;7.17;100.00
28935;BME280;16044;52.726;-2.108;2024-01-27T11:30:28;102077.50;;;7.24;100.00
28935;BME280;16044;52.726;-2.108;2024-01-27T11:33:03;102086.19;;;7.28;100.00
28935;BME280;16044;52.726;-2.108;2024-01-27T11:35:35;102085.50;;;7.37;100.00
28935;BME280;16044;52.726;-2.108;2024-01-27T11:38:06;102087.34;;;7.36;100.00
28935;BME280;16044;52.726;-2.108;2024-01-27T11:40:45;102086.03;;;7.42;100.00
28935;BME280;16044;52.726;-2.108;2024-01-27T11:43:17;102090.31;;;7.45;100.00
28935;BME280;16044;52.726;-2.108;2024-01-27T11:45:57;102090.09;;;7.48;100.00
28935;BME280;16044;52.726;-2.108;2024-01-27T11:48:28;102100.25;;;7.44;100.00
28935;BME280;16044;52.726;-2.108;2024-01-27T11:51:06;102088.63;;;7.44;100.00
28935;BME280;16044;52.726;-2.108;2024-01-27T11:53:38;102091.81;;;7.49;100.00
28935;BME280;16044;52.726;-2.108;2024-01-27T11:56:08;102092.69;;;7.49;100.00
28935;BME280;16044;52.726;-2.108;2024-01-27T11:58:46;102084.47;;;7.51;100.00
28935;BME280;16044;52.726;-2.108;2024-01-27T12:01:20;102084.47;;;7.51;100.00
28935;BME280;16044;52.726;-2.108;2024-01-27T12:03:50;102079.19;;;7.49;100.00
28935;BME280;16044;52.726;-2.108;2024-01-27T12:06:21;102070.00;;;7.52;100.00
28935;BME280;16044;52.726;-2.108;2024-01-27T12:08:53;102071.19;;;7.48;100.00
28935;BME280;16044;52.726;-2.108;2024-01-27T12:11:24;102066.66;;;7.48;100.00
28935;BME280;16044;52.726;-2.108;2024-01-27T12:13:57;102062.00;;;7.50;100.00
28935;BME280;16044;52.726;-2.108;2024-01-27T12:16:30;102048.50;;;7.50;100.00
28935;BME280;16044;52.726;-2.108;2024-01-27T12:19:01;102039.34;;;7.53;100.00
28935;BME280;16044;52.726;-2.108;2024-01-27T12:21:31;102033.84;;;7.54;100.00
28935;BME280;16044;52.726;-2.108;2024-01-27T12:24:03;102033.47;;;7.59;100.00
28935;BME280;16044;52.726;-2.108;2024-01-27T12:26:34;102022.56;;;7.60;100.00
28935;BME280;16044;52.726;-2.108;2024-01-27T12:29:06;102023.28;;;7.63;100.00
28935;BME280;16044;52.726;-2.108;2024-01-27T12:31:39;102018.75;;;7.63;100.00
28935;BME280;16044;52.726;-2.108;2024-01-27T12:34:09;102018.63;;;7.65;100.00
28935;BME280;16044;52.726;-2.108;2024-01-27T12:36:41;102023.06;;;7.66;100.00
28935;BME280;16044;52.726;-2.108;2024-01-27T12:39:12;102012.28;;;7.66;100.00
28935;BME280;16044;52.726;-2.108;2024-01-27T12:41:42;102008.34;;;7.70;100.00
28935;BME280;16044;52.726;-2.108;2024-01-27T12:44:12;102011.03;;;7.70;100.00
28935;BME280;16044;52.726;-2.108;2024-01-27T12:46:45;102004.66;;;7.71;100.00
28935;BME280;16044;52.726;-2.108;2024-01-27T12:49:19;101991.03;;;7.72;100.00
28935;BME280;16044;52.726;-2.108;2024-01-27T12:51:50;101979.38;;;7.72;100.00
28935;BME280;16044;52.726;-2.108;2024-01-27T12:54:20;101988.34;;;7.72;100.00
28935;BME280;16044;52.726;-2.108;2024-01-27T12:56:50;101966.00;;;7.70;100.00
28935;BME280;16044;52.726;-2.108;2024-01-27T12:59:21;101944.81;;;7.66;100.00
28935;BME280;16044;52.726;-2.108;2024-01-27T13:01:54;101952.00;;;7.65;100.00